Time;durP1;ratioP1;P1;durP2;ratioP2;P2;SDS_P1;SDS_P2;PMS_P1;PMS_P2;Temp;Humidity;BMP_temperature;BMP_pressure;BME280_temperature;BME280_humidity;BME280_pressure;Samples;Min_cycle;Max_cycle;Signal;HPM_P1;HPM_P2
2023/04/27 00:00:23;;;;;;;0.57;0.57;;;3.60;99.90;;;;;;5039911;28;20523;-84
2023/04/27 00:02:49;;;;;;;0.63;0.63;;;3.20;99.90;;;;;;5038794;28;20050;-85
2023/04/27 00:05:15;;;;;;;1.20;1.20;;;3.60;99.90;;;;;;5038628;28;20046;-86
2023/04/27 00:07:41;;;;;;;;;;;3.80;99.90;;;;;;5022428;28;20419;-85
2023/04/27 00:10:07;;;;;;;0.70;0.70;;;3.50;99.90;;;;;;5039568;28;19928;-85
2023/04/27 00:12:33;;;;;;;0.80;0.80;;;3.70;99.90;;;;;;5038276;28;20054;-86
2023/04/27 00:14:59;;;;;;;0.60;0.60;;;4.80;99.90;;;;;;5037806;28;20049;-84
2023/04/27 00:17:25;;;;;;;0.90;0.88;;;3.90;99.90;;;;;;5038513;28;20045;-84
2023/04/27 00:19:51;;;;;;;0.52;0.52;;;4.00;99.90;;;;;;5037474;28;20064;-84
2023/04/27 00:22:17;;;;;;;0.82;0.82;;;3.90;99.90;;;;;;5021022;28;20468;-82
2023/04/27 00:24:42;;;;;;;;;;;4.50;99.90;;;;;;5037966;28;20056;-83
2023/04/27 00:27:08;;;;;;;0.70;0.70;;;3.90;99.90;;;;;;5019429;28;20008;-85
2023/04/27 00:29:34;;;;;;;0.60;0.60;;;3.90;99.90;;;;;;5036736;28;20064;-85
2023/04/27 00:31:59;;;;;;;0.70;0.70;;;3.90;99.90;;;;;;5037190;28;20053;-85
2023/04/27 00:34:25;;;;;;;0.63;0.63;;;3.80;99.90;;;;;;5020720;28;20053;-83
2023/04/27 00:36:54;;;;;;;0.60;0.60;;;4.70;99.90;;;;;;5037236;28;20399;-86
2023/04/27 00:39:20;;;;;;;0.63;0.63;;;3.70;99.90;;;;;;5038224;28;20049;-84
2023/04/27 00:41:45;;;;;;;0.70;0.70;;;3.90;99.90;;;;;;5036968;28;20101;-82
2023/04/27 00:44:11;;;;;;;0.70;0.70;;;3.70;99.90;;;;;;5036501;28;20530;-83
2023/04/27 00:46:37;;;;;;;0.60;0.60;;;4.30;99.90;;;;;;5036816;28;20435;-85
2023/04/27 00:49:03;;;;;;;0.60;0.60;;;3.40;99.90;;;;;;5019900;28;20099;-82
2023/04/27 00:51:30;;;;;;;0.50;0.50;;;3.20;99.90;;;;;;5037881;28;20060;-85
2023/04/27 00:53:57;;;;;;;0.60;0.60;;;3.10;99.90;;;;;;5037671;28;20049;-85
2023/04/27 00:56:23;;;;;;;0.80;0.80;;;3.00;99.90;;;;;;5054113;28;20460;-85
2023/04/27 00:58:49;;;;;;;0.60;0.60;;;3.40;99.90;;;;;;5004955;28;20041;-84
2023/04/27 01:01:15;;;;;;;0.60;0.60;;;2.80;99.90;;;;;;5036767;28;20476;-84
2023/04/27 01:03:41;;;;;;;0.63;0.63;;;2.70;99.90;;;;;;5021965;28;20061;-85
2023/04/27 01:06:06;;;;;;;0.68;0.68;;;2.60;99.90;;;;;;5039201;28;20053;-81
2023/04/27 01:08:32;;;;;;;0.52;0.52;;;3.20;99.90;;;;;;5033515;28;20104;-83
2023/04/27 01:10:58;;;;;;;0.65;0.65;;;2.40;99.90;;;;;;5051023;28;20045;-82
2023/04/27 01:13:24;;;;;;;0.65;0.65;;;2.50;99.90;;;;;;5051300;28;20048;-84
2023/04/27 01:15:49;;;;;;;0.60;0.60;;;2.80;99.90;;;;;;5037401;28;20060;-86
2023/04/27 01:18:15;;;;;;;0.70;0.70;;;2.40;99.90;;;;;;5052917;28;20479;-85
2023/04/27 01:20:42;;;;;;;0.70;0.70;;;3.20;99.90;;;;;;5036752;28;20085;-85
2023/04/27 01:23:07;;;;;;;0.60;0.60;;;2.00;99.90;;;;;;5037327;28;20049;-81
2023/04/27 01:25:33;;;;;;;0.70;0.70;;;1.90;99.90;;;;;;5052577;28;20534;-84
2023/04/27 01:27:59;;;;;;;0.60;0.60;;;1.80;99.90;;;;;;5035949;28;20132;-85
2023/04/27 01:30:27;;;;;;;0.68;0.68;;;3.20;99.90;;;;;;5035759;28;20057;-85
2023/04/27 01:32:53;;;;;;;0.60;0.60;;;2.50;99.90;;;;;;5036178;28;20057;-85
2023/04/27 01:35:18;;;;;;;0.65;0.65;;;2.10;99.90;;;;;;5035596;28;20064;-83
2023/04/27 01:37:44;;;;;;;0.60;0.60;;;2.60;99.90;;;;;;5035007;28;20491;-85
2023/04/27 01:40:10;;;;;;;0.50;0.50;;;1.50;99.90;;;;;;5035244;28;20056;-83
2023/04/27 01:42:39;;;;;;;0.80;0.80;;;1.50;99.90;;;;;;5036752;28;20053;-86
2023/04/27 01:45:06;;;;;;;0.73;0.73;;;2.60;99.90;;;;;;5036250;28;20045;-86
2023/04/27 01:47:31;;;;;;;0.60;0.60;;;1.50;99.90;;;;;;5035781;28;20080;-84
2023/04/27 01:49:57;;;;;;;0.60;0.60;;;1.50;99.90;;;;;;5035447;28;20119;-86
2023/04/27 01:52:23;;;;;;;0.77;0.77;;;1.80;99.90;;;;;;5019355;28;20053;-85
2023/04/27 01:54:48;;;;;;;0.73;0.73;;;2.20;99.90;;;;;;5019610;28;20452;-85
2023/04/27 01:57:14;;;;;;;0.70;0.70;;;1.40;99.90;;;;;;5035407;28;20392;-84
2023/04/27 01:59:40;;;;;;;0.60;0.60;;;1.40;99.90;;;;;;5036060;28;20133;-85
2023/04/27 02:02:05;;;;;;;0.70;0.70;;;1.70;99.90;;;;;;5036240;28;20061;-85
2023/04/27 02:04:31;;;;;;;0.65;0.65;;;2.30;99.90;;;;;;5035956;28;20490;-85
2023/04/27 02:06:57;;;;;;;0.70;0.70;;;1.40;99.90;;;;;;5036541;28;20089;-83
2023/04/27 02:09:22;;;;;;;0.60;0.60;;;1.50;99.90;;;;;;5035925;28;20048;-81
2023/04/27 02:11:48;;;;;;;0.70;0.70;;;1.80;99.90;;;;;;5019769;28;20045;-84
2023/04/27 02:14:14;;;;;;;0.80;0.80;;;1.50;99.90;;;;;;5036509;28;20157;-86
2023/04/27 02:16:39;;;;;;;0.80;0.80;;;2.00;99.90;;;;;;5035077;28;20392;-85
2023/04/27 02:19:05;;;;;;;0.70;0.70;;;1.50;99.90;;;;;;5035984;28;20135;-85
2023/04/27 02:21:31;;;;;;;0.88;0.88;;;1.50;99.90;;;;;;5036535;28;20041;-83
2023/04/27 02:23:57;;;;;;;0.50;0.50;;;1.40;99.90;;;;;;5035891;28;20461;-85
2023/04/27 02:26:28;;;;;;;0.80;0.80;;;2.20;99.90;;;;;;5035710;28;20057;-84
2023/04/27 02:28:55;;;;;;;2.55;0.88;;;1.40;99.90;;;;;;5036984;28;20528;-85
2023/04/27 02:31:21;;;;;;;0.80;0.80;;;1.40;99.90;;;;;;5052225;28;20053;-84
2023/04/27 02:33:47;;;;;;;0.60;0.60;;;2.40;99.90;;;;;;5035433;28;20063;-82
2023/04/27 02:36:13;;;;;;;0.70;0.70;;;1.30;99.90;;;;;;5035153;28;20143;-82
2023/04/27 02:38:38;;;;;;;0.80;0.80;;;1.30;99.90;;;;;;5035735;28;20057;-83
2023/04/27 02:41:04;;;;;;;0.63;0.63;;;1.20;99.90;;;;;;5034702;28;20072;-85
2023/04/27 02:43:30;;;;;;;0.70;0.70;;;2.30;99.90;;;;;;5036833;28;20049;-85
2023/04/27 02:45:56;;;;;;;0.75;0.75;;;1.60;99.90;;;;;;5035611;28;20080;-85
2023/04/27 02:48:21;;;;;;;0.60;0.60;;;1.40;99.90;;;;;;5036092;28;20052;-85
2023/04/27 02:50:47;;;;;;;0.80;0.80;;;0.90;99.90;;;;;;5035919;28;20049;-85
2023/04/27 02:53:13;;;;;;;0.80;0.80;;;0.90;99.90;;;;;;5035131;28;20054;-85
2023/04/27 02:55:48;;;;;;;0.80;0.80;;;1.60;99.90;;;;;;5034650;28;20085;-85
2023/04/27 02:58:17;;;;;;;0.70;0.70;;;1.20;99.90;;;;;;5051376;28;20049;-85
2023/04/27 03:00:44;;;;;;;0.80;0.80;;;0.80;99.90;;;;;;5035035;28;20049;-81
2023/04/27 03:03:09;;;;;;;0.70;0.70;;;0.80;99.90;;;;;;5035155;28;20057;-84
2023/04/27 03:05:36;;;;;;;0.70;0.70;;;0.70;99.90;;;;;;5034488;28;20567;-87
2023/04/27 03:08:02;;;;;;;0.73;0.73;;;0.70;99.90;;;;;;5035641;28;20065;-86
2023/04/27 03:10:28;;;;;;;0.70;0.70;;;0.70;99.90;;;;;;5037557;28;20042;-84
2023/04/27 03:12:53;;;;;;;0.82;0.82;;;0.70;99.90;;;;;;5055934;28;20045;-84
2023/04/27 03:15:19;;;;;;;0.70;0.70;;;0.80;99.90;;;;;;5022937;28;20103;-85
2023/04/27 03:17:44;;;;;;;0.80;0.80;;;0.70;99.90;;;;;;5038768;28;20136;-82
2023/04/27 03:20:11;;;;;;;0.80;0.80;;;1.30;99.90;;;;;;5039069;28;20021;-85
2023/04/27 03:22:36;;;;;;;0.70;0.70;;;0.60;99.90;;;;;;5038607;28;20416;-86
2023/04/27 03:25:02;;;;;;;0.73;0.73;;;2.00;99.90;;;;;;5022534;28;20049;-85
2023/04/27 03:27:28;;;;;;;;;;;0.60;99.90;;;;;;5039927;28;20053;-85
2023/04/27 03:29:54;;;;;;;0.70;0.70;;;1.30;99.90;;;;;;5039068;28;19921;-85
2023/04/27 03:32:20;;;;;;;0.70;0.70;;;0.90;99.90;;;;;;5040629;28;20136;-82
2023/04/27 03:34:46;;;;;;;0.75;0.75;;;0.50;99.90;;;;;;5040156;28;20049;-86
2023/04/27 03:37:12;;;;;;;0.80;0.80;;;1.50;99.90;;;;;;5038980;28;20053;-85
2023/04/27 03:39:37;;;;;;;0.60;0.60;;;0.80;99.90;;;;;;5055431;28;20045;-84
2023/04/27 03:42:04;;;;;;;0.70;0.70;;;0.40;99.90;;;;;;5038519;28;20033;-85
2023/04/27 03:44:33;;;;;;;0.98;0.98;;;0.40;99.90;;;;;;5038567;28;20498;-82
2023/04/27 03:46:59;;;;;;;0.63;0.63;;;0.40;99.90;;;;;;5038587;28;20049;-86
2023/04/27 03:49:25;;;;;;;0.60;0.60;;;0.40;99.90;;;;;;5037704;28;20052;-82
2023/04/27 03:51:51;;;;;;;0.50;0.50;;;0.90;99.90;;;;;;5037988;28;20428;-85
2023/04/27 03:54:17;;;;;;;0.70;0.70;;;0.80;99.90;;;;;;5038386;28;20076;-84
2023/04/27 03:56:43;;;;;;;;;;;1.10;99.90;;;;;;5055070;28;20522;-87
2023/04/27 03:59:09;;;;;;;0.75;0.75;;;1.30;99.90;;;;;;5038210;28;19929;-86
2023/04/27 04:01:35;;;;;;;0.60;0.60;;;0.50;99.90;;;;;;5055044;28;20049;-86
2023/04/27 04:04:00;;;;;;;;;;;1.40;99.90;;;;;;5039305;28;20488;-84
2023/04/27 04:06:26;;;;;;;0.70;0.70;;;0.60;99.90;;;;;;5036943;28;19928;-85
2023/04/27 04:08:53;;;;;;;0.60;0.60;;;0.70;99.90;;;;;;5053990;28;20052;-85
2023/04/27 04:11:19;;;;;;;0.63;0.63;;;1.20;99.90;;;;;;5020881;28;20047;-86
2023/04/27 04:13:46;;;;;;;0.88;0.88;;;1.20;99.90;;;;;;5022280;28;20085;-85
2023/04/27 04:16:12;;;;;;;0.60;0.60;;;1.20;99.90;;;;;;5038570;28;20089;-85
2023/04/27 04:18:38;;;;;;;0.68;0.68;;;0.80;99.90;;;;;;5038312;28;20090;-85
2023/04/27 04:21:04;;;;;;;0.82;0.80;;;0.80;99.90;;;;;;5037720;28;20045;-85
2023/04/27 04:23:31;;;;;;;;;;;0.80;99.90;;;;;;5038168;28;20051;-84
2023/04/27 04:25:57;;;;;;;;;;;0.80;99.90;;;;;;5021525;28;19924;-85
2023/04/27 04:28:23;;;;;;;0.70;0.70;;;0.80;99.90;;;;;;5038123;28;19925;-81
2023/04/27 04:30:49;;;;;;;0.52;0.52;;;0.80;99.90;;;;;;5053525;28;20049;-83
2023/04/27 04:33:16;;;;;;;0.63;0.63;;;2.20;99.90;;;;;;5037051;28;20052;-82
2023/04/27 04:35:42;;;;;;;0.60;0.60;;;1.50;99.90;;;;;;5020349;28;20072;-84
2023/04/27 04:38:08;;;;;;;0.70;0.70;;;1.00;99.90;;;;;;5054680;28;20041;-85
2023/04/27 04:40:35;;;;;;;1.58;1.48;;;1.90;99.90;;;;;;5054820;28;20437;-85
2023/04/27 04:43:00;;;;;;;;;;;1.10;99.90;;;;;;5021264;28;20106;-86
2023/04/27 04:45:26;;;;;;;0.80;0.80;;;1.20;99.90;;;;;;5054402;28;20019;-80
2023/04/27 04:47:53;;;;;;;0.60;0.60;;;0.50;99.90;;;;;;5037090;28;20052;-85
2023/04/27 04:50:19;;;;;;;0.52;0.52;;;1.30;99.90;;;;;;5037753;28;20060;-84
2023/04/27 04:52:45;;;;;;;0.70;0.70;;;1.40;99.90;;;;;;5036678;28;20104;-85
2023/04/27 04:55:10;;;;;;;;;;;2.20;99.90;;;;;;5037807;28;20104;-84
2023/04/27 04:57:36;;;;;;;0.60;0.60;;;1.50;99.90;;;;;;5036680;28;20307;-86
2023/04/27 05:00:11;;;;;;;0.70;0.70;;;1.50;99.90;;;;;;5053703;28;20056;-83
2023/04/27 05:02:36;;;;;;;0.77;0.77;;;1.50;99.90;;;;;;5036793;28;20403;-88
2023/04/27 05:05:03;;;;;;;0.60;0.60;;;2.20;99.90;;;;;;5035787;28;20137;-84
2023/04/27 05:07:28;;;;;;;0.60;0.60;;;1.60;99.90;;;;;;5036075;28;20106;-81
2023/04/27 05:09:54;;;;;;;0.70;0.70;;;2.10;99.90;;;;;;5035802;28;20116;-83
2023/04/27 05:12:20;;;;;;;0.70;0.70;;;2.20;99.90;;;;;;5003801;28;20033;-85
2023/04/27 05:14:47;;;;;;;0.70;0.70;;;1.80;99.90;;;;;;5035439;28;20041;-85
2023/04/27 05:17:13;;;;;;;0.55;0.55;;;2.30;99.90;;;;;;5036342;28;20132;-83
2023/04/27 05:19:38;;;;;;;0.60;0.60;;;2.60;99.90;;;;;;5036380;28;20088;-84
2023/04/27 05:22:04;;;;;;;0.80;0.80;;;2.00;99.90;;;;;;5036307;28;20096;-84
2023/04/27 05:24:30;;;;;;;0.60;0.60;;;2.90;99.90;;;;;;5036185;28;20060;-81
2023/04/27 05:26:56;;;;;;;0.60;0.60;;;3.60;99.90;;;;;;5036564;28;20505;-86
2023/04/27 05:29:22;;;;;;;1.38;1.38;;;3.50;99.90;;;;;;5036451;28;20068;-86
2023/04/27 05:31:47;;;;;;;;;;;2.50;99.90;;;;;;5020311;28;20136;-85
2023/04/27 05:34:13;;;;;;;0.70;0.70;;;2.60;99.90;;;;;;5036357;28;20420;-84
2023/04/27 05:36:39;;;;;;;0.70;0.70;;;3.60;99.90;;;;;;5036466;28;20132;-85
2023/04/27 05:39:05;;;;;;;0.65;0.65;;;2.80;99.90;;;;;;5036005;28;20085;-82
2023/04/27 05:41:31;;;;;;;1.50;1.40;;;2.90;99.90;;;;;;5035909;28;20426;-81
2023/04/27 05:43:56;;;;;;;0.73;0.73;;;3.80;99.90;;;;;;5035942;28;20049;-85
2023/04/27 05:46:22;;;;;;;1.35;1.25;;;3.10;99.90;;;;;;5035734;28;20076;-85
2023/04/27 05:48:48;;;;;;;1.10;1.10;;;3.20;99.90;;;;;;5035603;28;20400;-82
2023/04/27 05:51:13;;;;;;;0.90;0.90;;;4.00;99.90;;;;;;5035491;28;20049;-83
2023/04/27 05:53:40;;;;;;;0.75;0.75;;;3.60;99.90;;;;;;5035263;28;20515;-86
2023/04/27 05:56:05;;;;;;;;;;;4.10;99.90;;;;;;5036353;28;20093;-85
2023/04/27 05:58:34;;;;;;;0.60;0.60;;;3.90;99.90;;;;;;5035555;28;19928;-83
2023/04/27 06:01:01;;;;;;;0.70;0.70;;;4.00;99.90;;;;;;5035998;28;20353;-84
2023/04/27 06:03:28;;;;;;;0.88;0.88;;;4.10;99.90;;;;;;5035968;28;20084;-82
2023/04/27 06:05:55;;;;;;;0.60;0.60;;;4.60;99.90;;;;;;5034995;28;20087;-85
2023/04/27 06:08:21;;;;;;;0.60;0.60;;;4.20;99.90;;;;;;5037143;28;20049;-83
2023/04/27 06:10:47;;;;;;;0.88;0.88;;;4.40;99.90;;;;;;5020148;28;20060;-83
2023/04/27 06:13:13;;;;;;;0.50;0.50;;;4.40;99.90;;;;;;5037402;28;20057;-85
2023/04/27 06:15:38;;;;;;;0.70;0.70;;;4.50;99.90;;;;;;5035949;28;20056;-85
2023/04/27 06:18:05;;;;;;;0.52;0.52;;;4.50;99.90;;;;;;5035388;28;20125;-84
2023/04/27 06:20:30;;;;;;;0.50;0.50;;;4.60;99.90;;;;;;5034959;28;20036;-86
2023/04/27 06:22:57;;;;;;;0.60;0.60;;;4.60;99.90;;;;;;5035187;28;20041;-84
2023/04/27 06:25:23;;;;;;;0.60;0.60;;;4.60;99.90;;;;;;5051375;28;20046;-82
2023/04/27 06:27:48;;;;;;;0.80;0.80;;;4.60;99.90;;;;;;5033810;28;20055;-86
2023/04/27 06:30:15;;;;;;;0.90;0.90;;;4.70;99.90;;;;;;5033907;28;20061;-81
2023/04/27 06:32:41;;;;;;;0.70;0.70;;;4.90;99.90;;;;;;5034737;28;20060;-83
2023/04/27 06:35:07;;;;;;;0.60;0.60;;;5.00;99.90;;;;;;5034458;28;20045;-83
2023/04/27 06:37:32;;;;;;;;;;;5.10;99.90;;;;;;5035003;28;20053;-82
2023/04/27 06:39:58;;;;;;;0.70;0.70;;;5.30;99.90;;;;;;5035328;28;20309;-83
2023/04/27 06:42:24;;;;;;;0.80;0.80;;;5.40;99.90;;;;;;5033945;28;20037;-83
2023/04/27 06:44:54;;;;;;;0.82;0.82;;;5.50;99.90;;;;;;5034246;28;20096;-82
2023/04/27 06:47:20;;;;;;;0.60;0.60;;;5.60;99.90;;;;;;5034602;28;20117;-82
2023/04/27 06:49:45;;;;;;;0.65;0.65;;;5.80;99.90;;;;;;5033434;28;20104;-81
2023/04/27 06:52:11;;;;;;;1.10;1.00;;;5.90;99.90;;;;;;5034029;28;20401;-83
2023/04/27 06:54:37;;;;;;;0.82;0.82;;;6.00;99.90;;;;;;5034410;28;20136;-82
2023/04/27 06:57:02;;;;;;;0.70;0.70;;;6.10;99.90;;;;;;5033847;28;20144;-82
2023/04/27 06:59:28;;;;;;;0.52;0.52;;;6.30;99.90;;;;;;5033985;28;20045;-83
2023/04/27 07:01:54;;;;;;;0.60;0.60;;;6.50;99.90;;;;;;5033738;28;20503;-81
2023/04/27 07:04:19;;;;;;;0.90;0.90;;;6.50;99.90;;;;;;5034816;28;20046;-82
2023/04/27 07:06:45;;;;;;;0.73;0.73;;;6.60;99.90;;;;;;5017891;28;20045;-82
2023/04/27 07:09:11;;;;;;;0.60;0.60;;;6.70;99.90;;;;;;5033920;28;20050;-80
2023/04/27 07:11:36;;;;;;;1.13;1.13;;;6.70;99.90;;;;;;5033161;28;20125;-82
2023/04/27 07:14:02;;;;;;;0.85;0.85;;;6.80;99.90;;;;;;5034477;28;20045;-82
2023/04/27 07:16:28;;;;;;;1.15;0.98;;;6.90;99.90;;;;;;5033966;28;20049;-84
2023/04/27 07:18:53;;;;;;;0.50;0.50;;;7.00;99.90;;;;;;5033707;28;20072;-83
2023/04/27 07:21:20;;;;;;;0.50;0.50;;;7.10;99.90;;;;;;5033629;28;20118;-84
2023/04/27 07:23:46;;;;;;;0.63;0.63;;;7.20;99.90;;;;;;5033690;28;20129;-81
2023/04/27 07:26:12;;;;;;;0.70;0.70;;;7.30;99.90;;;;;;5033954;28;20556;-82
2023/04/27 07:28:38;;;;;;;0.60;0.60;;;7.30;99.90;;;;;;5050376;28;20046;-82
2023/04/27 07:31:05;;;;;;;0.57;0.57;;;7.40;99.90;;;;;;5032051;28;20060;-84
2023/04/27 07:33:31;;;;;;;0.60;0.60;;;7.50;99.90;;;;;;5032243;28;20369;-82
2023/04/27 07:35:58;;;;;;;0.50;0.50;;;7.60;99.90;;;;;;5032888;28;20087;-82
2023/04/27 07:38:24;;;;;;;0.60;0.60;;;7.70;99.90;;;;;;5048989;28;20085;-81
2023/04/27 07:40:51;;;;;;;0.38;0.38;;;7.80;99.90;;;;;;5033097;28;20045;-83
2023/04/27 07:43:17;;;;;;;0.52;0.52;;;7.90;99.90;;;;;;5032719;28;20060;-82
2023/04/27 07:45:44;;;;;;;0.73;0.73;;;8.00;99.90;;;;;;5034081;28;20053;-80
2023/04/27 07:48:10;;;;;;;0.68;0.68;;;8.10;99.90;;;;;;5033680;28;20046;-82
2023/04/27 07:50:36;;;;;;;0.50;0.50;;;8.20;99.90;;;;;;5033103;28;20049;-84
2023/04/27 07:53:02;;;;;;;0.60;0.60;;;8.40;99.90;;;;;;5032466;28;20042;-81
2023/04/27 07:55:28;;;;;;;0.50;0.50;;;8.50;99.90;;;;;;5033151;28;20156;-82
2023/04/27 07:57:54;;;;;;;;;;;8.60;99.90;;;;;;5037025;28;20469;-83
2023/04/27 08:00:21;;;;;;;0.50;0.50;;;8.70;99.90;;;;;;5037081;28;19964;-84
2023/04/27 08:02:46;;;;;;;0.50;0.50;;;8.70;99.90;;;;;;5037234;28;20053;-84
2023/04/27 08:05:12;;;;;;;0.80;0.55;;;8.70;99.90;;;;;;5038158;28;20049;-83
2023/04/27 08:07:39;;;;;;;0.50;0.50;;;8.70;99.90;;;;;;5036409;28;20454;-83
2023/04/27 08:10:07;;;;;;;0.50;0.50;;;8.70;99.90;;;;;;5036711;28;20042;-84
2023/04/27 08:12:33;;;;;;;0.40;0.40;;;8.70;99.90;;;;;;5037794;28;20053;-82
2023/04/27 08:14:59;;;;;;;0.60;0.60;;;8.80;99.90;;;;;;5053200;28;20045;-83
2023/04/27 08:17:25;;;;;;;0.60;0.60;;;8.90;99.90;;;;;;5036144;28;20091;-81
2023/04/27 08:19:51;;;;;;;0.40;0.40;;;9.00;99.90;;;;;;5036931;28;20049;-81
2023/04/27 08:22:17;;;;;;;0.60;0.60;;;9.20;99.90;;;;;;5036992;28;20046;-84
2023/04/27 08:24:42;;;;;;;0.50;0.50;;;9.30;99.90;;;;;;5037530;28;20415;-84
2023/04/27 08:27:08;;;;;;;0.52;0.52;;;9.40;99.90;;;;;;5037781;28;20500;-83
2023/04/27 08:29:34;;;;;;;0.47;0.47;;;9.40;99.90;;;;;;5021868;28;20492;-84
2023/04/27 08:32:03;;;;;;;0.45;0.45;;;9.50;99.90;;;;;;5037964;28;20045;-85
2023/04/27 08:34:29;;;;;;;0.50;0.50;;;9.70;99.90;;;;;;5054265;28;20144;-83
2023/04/27 08:36:55;;;;;;;;;;;9.90;99.90;;;;;;5037977;28;20060;-83
2023/04/27 08:39:22;;;;;;;0.60;0.60;;;9.90;99.90;;;;;;5040233;28;19921;-85
2023/04/27 08:41:48;;;;;;;0.50;0.50;;;9.80;99.90;;;;;;5054094;28;20448;-82
2023/04/27 08:44:14;;;;;;;0.50;0.50;;;9.90;99.90;;;;;;5055602;28;20052;-85
2023/04/27 08:46:40;;;;;;;0.40;0.40;;;10.10;99.90;;;;;;5021481;28;20050;-85
2023/04/27 08:49:06;;;;;;;0.63;0.63;;;10.40;99.90;;;;;;5038823;28;20033;-85
2023/04/27 08:51:33;;;;;;;0.73;0.73;;;10.60;99.90;;;;;;5054445;28;20041;-84
2023/04/27 08:53:59;;;;;;;0.50;0.50;;;10.80;99.90;;;;;;5038138;28;20072;-84
2023/04/27 08:56:26;;;;;;;0.38;0.38;;;10.80;99.90;;;;;;5037420;28;20037;-86
2023/04/27 08:58:53;;;;;;;0.57;0.57;;;10.70;98.90;;;;;;5039153;28;20049;-84
2023/04/27 09:01:22;;;;;;;0.65;0.65;;;10.80;99.90;;;;;;5035867;28;20049;-84
2023/04/27 09:03:54;;;;;;;0.60;0.60;;;10.90;99.90;;;;;;5035411;28;20056;-81
2023/04/27 09:06:32;;;;;;;1.13;1.08;;;10.90;99.90;;;;;;5035920;28;20060;-81
2023/04/27 09:08:58;;;;;;;0.40;0.40;;;11.10;99.90;;;;;;5052988;28;20133;-87
2023/04/27 09:11:36;;;;;;;0.40;0.40;;;11.10;99.90;;;;;;5039263;28;20049;-87
2023/04/27 09:14:15;;;;;;;0.70;0.70;;;11.30;99.90;;;;;;5036831;28;20069;-82
2023/04/27 09:16:41;;;;;;;0.60;0.60;;;11.40;97.80;;;;;;5037087;28;20045;-87
2023/04/27 09:19:07;;;;;;;0.82;0.82;;;11.20;96.50;;;;;;5036886;28;20377;-87
2023/04/27 09:21:33;;;;;;;0.50;0.50;;;11.20;96.20;;;;;;5036628;28;20092;-84
2023/04/27 09:24:09;;;;;;;0.43;0.43;;;11.20;95.70;;;;;;5037224;28;20056;-87
2023/04/27 09:26:36;;;;;;;0.50;0.50;;;11.30;95.70;;;;;;5053771;28;20457;-85
2023/04/27 09:29:02;;;;;;;0.52;0.52;;;11.50;96.20;;;;;;5019714;28;20053;-85
2023/04/27 09:31:32;;;;;;;0.50;0.50;;;11.60;95.30;;;;;;5038473;28;20059;-86
2023/04/27 09:33:57;;;;;;;0.90;0.90;;;11.60;94.20;;;;;;5037275;28;20046;-87
2023/04/27 09:36:24;;;;;;;0.68;0.68;;;11.60;93.80;;;;;;5037616;28;20049;-86
2023/04/27 09:38:51;;;;;;;0.77;0.77;;;11.60;93.30;;;;;;5022475;28;20113;-85
2023/04/27 09:41:17;;;;;;;0.30;0.30;;;11.50;92.10;;;;;;5036826;28;20108;-87
2023/04/27 09:43:46;;;;;;;1.75;0.85;;;11.50;92.20;;;;;;5037991;28;20057;-85
2023/04/27 09:46:13;;;;;;;0.40;0.40;;;11.50;93.20;;;;;;5036722;28;20528;-87
2023/04/27 09:48:39;;;;;;;0.60;0.60;;;11.70;93.90;;;;;;5038552;28;20054;-87
2023/04/27 09:51:06;;;;;;;0.50;0.50;;;11.80;92.80;;;;;;5042419;28;20077;-84
2023/04/27 09:53:45;;;;;;;0.80;0.80;;;11.70;91.90;;;;;;5024052;28;20053;-86
2023/04/27 09:56:39;;;;;;;0.40;0.40;;;11.70;92.20;;;;;;5054683;28;20128;-84
2023/04/27 09:59:13;;;;;;;0.40;0.40;;;11.80;93.70;;;;;;5041938;28;20053;-84
2023/04/27 10:01:45;;;;;;;0.73;0.73;;;11.80;93.70;;;;;;5041184;28;20475;-85
2023/04/27 10:04:14;;;;;;;0.40;0.40;;;11.90;92.10;;;;;;5037972;28;20128;-85
2023/04/27 10:06:50;;;;;;;0.70;0.70;;;11.80;92.00;;;;;;5036778;28;20137;-86
2023/04/27 10:09:22;;;;;;;;;;;11.60;91.70;;;;;;5054844;28;20103;-86
2023/04/27 10:11:52;;;;;;;0.75;0.73;;;11.40;92.30;;;;;;5036890;28;19925;-85
2023/04/27 10:14:22;;;;;;;0.45;0.45;;;11.30;92.10;;;;;;5037971;28;20370;-87
2023/04/27 10:16:52;;;;;;;0.55;0.55;;;11.20;91.30;;;;;;5051934;28;20114;-87
2023/04/27 10:19:19;;;;;;;0.85;0.85;;;11.10;92.30;;;;;;5036953;28;20068;-86
2023/04/27 10:22:01;;;;;;;1.20;1.15;;;11.00;91.60;;;;;;5019262;28;20045;-86
2023/04/27 10:24:35;;;;;;;0.68;0.68;;;10.90;92.30;;;;;;5052117;28;20053;-87
2023/04/27 10:27:09;;;;;;;0.60;0.60;;;10.90;92.30;;;;;;5034996;28;20393;-87
2023/04/27 10:29:44;;;;;;;2.05;1.67;;;11.00;93.40;;;;;;5034988;28;20078;-85
2023/04/27 10:32:25;;;;;;;0.57;0.57;;;11.20;94.50;;;;;;5036456;28;20476;-86
2023/04/27 10:35:02;;;;;;;0.35;0.35;;;11.30;93.70;;;;;;5035544;28;20068;-83
2023/04/27 10:37:41;;;;;;;0.52;0.52;;;11.40;94.30;;;;;;5035866;28;20056;-87
2023/04/27 10:40:13;;;;;;;0.20;0.20;;;11.50;94.10;;;;;;5036269;28;20076;-87
2023/04/27 10:42:40;;;;;;;0.57;0.57;;;11.60;93.40;;;;;;5036499;28;20049;-88
2023/04/27 10:45:06;;;;;;;0.57;0.57;;;11.90;94.60;;;;;;5018415;28;20041;-86
2023/04/27 10:47:38;;;;;;;0.90;0.90;;;12.10;94.70;;;;;;5035159;28;20123;-82
2023/04/27 10:50:07;;;;;;;0.30;0.30;;;12.40;94.10;;;;;;5037218;28;20042;-86
2023/04/27 10:52:33;;;;;;;0.50;0.50;;;12.50;95.30;;;;;;5036485;28;20056;-86
2023/04/27 10:55:12;;;;;;;0.30;0.30;;;12.70;95.90;;;;;;5036705;28;20041;-81
2023/04/27 10:57:48;;;;;;;0.90;0.73;;;12.90;95.10;;;;;;5052751;28;20069;-87
2023/04/27 11:00:17;;;;;;;;;;;12.80;92.80;;;;;;5035273;28;20049;-86
2023/04/27 11:02:43;;;;;;;0.30;0.30;;;12.80;92.70;;;;;;5034992;28;19925;-86
2023/04/27 11:05:28;;;;;;;0.40;0.40;;;12.70;92.10;;;;;;5035622;28;20082;-86
2023/04/27 11:08:08;;;;;;;1.30;1.23;;;12.70;91.20;;;;;;5036125;28;20092;-85
2023/04/27 11:10:34;;;;;;;1.50;1.40;;;12.60;92.50;;;;;;5036143;28;20057;-87
2023/04/27 11:13:11;;;;;;;0.30;0.30;;;12.70;90.80;;;;;;5036581;28;20121;-83
2023/04/27 11:15:45;;;;;;;0.70;0.70;;;12.80;93.90;;;;;;5037248;28;20119;-88
2023/04/27 11:18:11;;;;;;;0.55;0.55;;;12.90;92.60;;;;;;5051285;28;20121;-86
2023/04/27 11:20:37;;;;;;;0.35;0.35;;;12.70;90.90;;;;;;5034947;28;20095;-84
2023/04/27 11:23:03;;;;;;;0.38;0.38;;;12.50;89.60;;;;;;5034741;28;20136;-83
2023/04/27 11:25:29;;;;;;;0.50;0.50;;;12.30;90.60;;;;;;5035662;28;20054;-84
2023/04/27 11:27:55;;;;;;;0.47;0.40;;;12.20;90.10;;;;;;5035650;28;20049;-85
2023/04/27 11:30:22;;;;;;;1.33;1.23;;;12.30;90.80;;;;;;5036991;28;20141;-87
2023/04/27 11:32:49;;;;;;;0.45;0.45;;;12.30;91.60;;;;;;5040188;28;20042;-84
2023/04/27 11:35:15;;;;;;;0.45;0.45;;;12.30;93.70;;;;;;5037693;28;20057;-88
2023/04/27 11:37:41;;;;;;;0.75;0.70;;;12.20;94.20;;;;;;5039253;28;20049;-87
2023/04/27 11:40:08;;;;;;;0.50;0.50;;;12.10;93.90;;;;;;5038784;28;20091;-85
2023/04/27 11:42:34;;;;;;;0.45;0.45;;;11.80;92.00;;;;;;5038264;28;20056;-85
2023/04/27 11:45:04;;;;;;;1.05;1.05;;;11.60;93.00;;;;;;5037685;28;20454;-87
2023/04/27 11:47:32;;;;;;;0.28;0.28;;;11.40;92.70;;;;;;5053768;28;20141;-86
2023/04/27 11:50:04;;;;;;;2.35;2.25;;;11.30;92.60;;;;;;5022243;28;20103;-86
2023/04/27 11:52:34;;;;;;;0.90;0.77;;;11.20;94.20;;;;;;5055521;28;20053;-89
2023/04/27 11:55:00;;;;;;;0.65;0.65;;;11.00;94.10;;;;;;5059426;28;20045;-86
2023/04/27 11:57:28;;;;;;;3.13;1.73;;;10.90;94.50;;;;;;5020778;28;20045;-87
2023/04/27 11:59:55;;;;;;;0.40;0.40;;;10.90;94.50;;;;;;5040222;28;20052;-87
2023/04/27 12:02:22;;;;;;;4.10;1.67;;;10.80;96.20;;;;;;5037682;28;20053;-87
2023/04/27 12:04:50;;;;;;;1.20;1.10;;;10.60;97.50;;;;;;5054861;28;20072;-88
2023/04/27 12:07:17;;;;;;;0.47;0.47;;;10.50;99.40;;;;;;5037958;28;20105;-87
2023/04/27 12:09:42;;;;;;;;;;;10.50;99.90;;;;;;5054462;28;20053;-85
2023/04/27 12:12:09;;;;;;;0.70;0.70;;;10.40;99.90;;;;;;5038105;28;19928;-82
2023/04/27 12:14:35;;;;;;;0.65;0.65;;;10.30;99.90;;;;;;5053497;28;20049;-89
2023/04/27 12:17:01;;;;;;;1.02;1.02;;;10.30;99.90;;;;;;5038209;28;20083;-88
2023/04/27 12:19:26;;;;;;;0.50;0.50;;;10.40;99.90;;;;;;5021246;28;20118;-87
2023/04/27 12:21:52;;;;;;;0.50;0.50;;;10.50;99.90;;;;;;5020878;28;20136;-87
2023/04/27 12:24:18;;;;;;;;;;;10.80;99.90;;;;;;5038327;28;20059;-88
2023/04/27 12:26:45;;;;;;;0.50;0.50;;;10.90;99.90;;;;;;5038312;28;20345;-87
2023/04/27 12:29:11;;;;;;;0.40;0.40;;;10.90;99.90;;;;;;5037971;28;20048;-84
2023/04/27 12:31:37;;;;;;;;;;;11.10;99.90;;;;;;5039010;28;20124;-89
2023/04/27 12:34:03;;;;;;;0.73;0.45;;;11.20;99.90;;;;;;5037248;28;20402;-84
2023/04/27 12:36:29;;;;;;;0.40;0.40;;;11.40;99.90;;;;;;5054728;28;20061;-87
2023/04/27 12:39:10;;;;;;;0.47;0.47;;;11.70;99.90;;;;;;5037438;28;20077;-87
2023/04/27 12:41:36;;;;;;;0.55;0.55;;;12.00;99.90;;;;;;5054350;28;20484;-87
2023/04/27 12:44:02;;;;;;;0.77;0.77;;;12.40;99.90;;;;;;5039103;28;20038;-88
2023/04/27 12:46:27;;;;;;;0.52;0.52;;;12.60;99.90;;;;;;5037796;28;20049;-86
2023/04/27 12:48:55;;;;;;;0.70;0.70;;;12.90;99.90;;;;;;5037416;28;20056;-88
2023/04/27 12:51:22;;;;;;;1.20;0.65;;;13.10;99.90;;;;;;5039097;28;20057;-90
2023/04/27 12:53:48;;;;;;;;;;;13.40;99.90;;;;;;5055488;28;20433;-83
2023/04/27 12:56:14;;;;;;;0.40;0.40;;;13.40;99.90;;;;;;5020627;28;19977;-87
2023/04/27 12:58:40;;;;;;;;;;;13.50;99.90;;;;;;5037213;28;20091;-85